createdAt,value
2022-12-16T00:01:25.943Z,99757.66
2022-12-16T00:03:55.473Z,99753.63
2022-12-16T00:06:25.025Z,99764.16
2022-12-16T00:08:52.128Z,99758.84
2022-12-16T00:11:19.854Z,99768.16
2022-12-16T00:13:47.334Z,99762.47
2022-12-16T00:16:16.410Z,99770.13
2022-12-16T00:18:44.040Z,99768.53
2022-12-16T00:21:11.265Z,99782.31
2022-12-16T00:23:47.202Z,99782.25
2022-12-16T00:26:14.414Z,99791.38
2022-12-16T00:28:41.579Z,99787.94
2022-12-16T00:31:08.458Z,99796.03
2022-12-16T00:33:35.753Z,99800.88
2022-12-16T00:36:03.158Z,99790.75
2022-12-16T00:38:29.968Z,99796.00
2022-12-16T00:40:56.777Z,99796.22
2022-12-16T00:43:23.460Z,99801.88
2022-12-16T00:45:50.618Z,99797.63
2022-12-16T00:48:19.165Z,99802.50
2022-12-16T00:50:55.792Z,99807.31
2022-12-16T00:53:24.074Z,99806.94
2022-12-16T00:55:51.351Z,99810.53
2022-12-16T00:58:18.876Z,99812.22
2022-12-16T01:00:45.579Z,99820.31
2022-12-16T01:03:15.579Z,99820.72
2022-12-16T01:05:46.171Z,99829.66
2022-12-16T01:08:13.205Z,99821.59
2022-12-16T01:10:39.827Z,99826.44
2022-12-16T01:13:06.584Z,99822.00
2022-12-16T01:15:33.201Z,99829.69
2022-12-16T01:17:59.821Z,99831.25
2022-12-16T01:20:26.446Z,99830.63
2022-12-16T01:22:53.047Z,99828.63
2022-12-16T01:25:21.564Z,99836.50
2022-12-16T01:27:48.504Z,99834.13
2022-12-16T01:30:15.181Z,99844.59
2022-12-16T01:32:41.821Z,99840.38
2022-12-16T01:35:29.500Z,99841.78
2022-12-16T01:37:56.220Z,99846.66
2022-12-16T01:40:24.804Z,99850.28
2022-12-16T01:42:51.735Z,99855.78
2022-12-16T01:45:25.221Z,99852.31
2022-12-16T01:47:56.317Z,99845.59
2022-12-16T01:50:23.341Z,99844.94
2022-12-16T01:52:56.756Z,99844.38
2022-12-16T01:55:31.600Z,99836.38
2022-12-16T01:58:09.305Z,99828.28
2022-12-16T02:00:38.477Z,99832.31
2022-12-16T02:03:06.372Z,99837.91
2022-12-16T02:05:36.366Z,99835.03
2022-12-16T02:08:10.114Z,99837.66
2022-12-16T02:10:39.838Z,99842.91
2022-12-16T02:13:15.455Z,99836.63
2022-12-16T02:16:17.353Z,99852.81
2022-12-16T02:19:31.140Z,99836.63
2022-12-16T02:22:22.484Z,99829.91
2022-12-16T02:25:26.644Z,99825.41
2022-12-16T02:27:59.365Z,99831.44
2022-12-16T02:31:05.516Z,99827.66
2022-12-16T02:33:45.168Z,99833.69
2022-12-16T02:36:41.219Z,99834.13
2022-12-16T02:39:20.930Z,99840.34
2022-12-16T02:41:57.439Z,99837.09
2022-12-16T02:44:36.284Z,99839.63
2022-12-16T02:47:02.916Z,99845.63
2022-12-16T02:49:30.000Z,99853.75
2022-12-16T02:51:59.696Z,99851.53
2022-12-16T02:54:27.963Z,99851.38
2022-12-16T02:57:03.640Z,99853.75
2022-12-16T02:59:42.260Z,99856.75
2022-12-16T03:02:24.398Z,99858.97
2022-12-16T03:05:08.668Z,99858.13
2022-12-16T03:07:38.765Z,99869.06
2022-12-16T03:10:10.183Z,99867.19
2022-12-16T03:12:41.291Z,99855.84
2022-12-16T03:15:09.248Z,99863.28
2022-12-16T03:17:37.573Z,99855.28
2022-12-16T03:20:16.605Z,99861.94
2022-12-16T03:22:46.433Z,99867.38
2022-12-16T03:25:13.980Z,99870.75
2022-12-16T03:28:04.843Z,99870.75
2022-12-16T03:30:47.897Z,99874.59
2022-12-16T03:33:28.264Z,99868.13
2022-12-16T03:36:02.046Z,99870.13
2022-12-16T03:38:29.700Z,99876.63
2022-12-16T03:40:58.209Z,99882.72
2022-12-16T03:43:25.247Z,99898.09
2022-12-16T03:45:56.812Z,99886.72
2022-12-16T03:48:26.064Z,99897.84
2022-12-16T03:50:52.707Z,99902.78
2022-12-16T03:53:24.526Z,99906.34
2022-12-16T03:55:51.114Z,99908.09
2022-12-16T03:58:17.773Z,99907.56
2022-12-16T04:00:44.539Z,99920.50
2022-12-16T04:03:11.366Z,99918.00
2022-12-16T04:05:38.429Z,99922.22
2022-12-16T04:08:05.003Z,99917.38
2022-12-16T04:10:50.217Z,99922.16
2022-12-16T04:13:35.884Z,99927.88
2022-12-16T04:16:21.351Z,99931.84
2022-12-16T04:19:07.125Z,99938.59
2022-12-16T04:21:52.613Z,99941.69
2022-12-16T04:24:20.281Z,99941.44
2022-12-16T04:27:15.072Z,99952.97
2022-12-16T04:30:02.842Z,99952.75
2022-12-16T04:32:49.729Z,99956.16
2022-12-16T04:35:35.077Z,99956.97
2022-12-16T04:38:20.517Z,99957.59
2022-12-16T04:41:05.677Z,99964.94
2022-12-16T04:43:51.050Z,99963.34
2022-12-16T04:46:36.466Z,99966.94
2022-12-16T04:49:21.860Z,99967.06
2022-12-16T04:52:07.196Z,99965.88
2022-12-16T04:54:52.281Z,99975.81
2022-12-16T04:57:37.452Z,99972.38
2022-12-16T05:00:23.816Z,99983.44
2022-12-16T05:03:09.136Z,99976.72
2022-12-16T05:05:55.085Z,99978.28
2022-12-16T05:08:40.276Z,99983.88
2022-12-16T05:11:35.887Z,99983.97
2022-12-16T05:14:21.057Z,99992.94
2022-12-16T05:17:06.190Z,100002.94
2022-12-16T05:19:51.290Z,100000.63
2022-12-16T05:22:36.502Z,100006.94
2022-12-16T05:25:22.246Z,100014.16
2022-12-16T05:28:12.121Z,100022.47
2022-12-16T05:30:57.509Z,100029.06
2022-12-16T05:33:42.796Z,100022.81
2022-12-16T05:36:27.936Z,100032.78
2022-12-16T05:39:13.122Z,100039.63
2022-12-16T05:41:58.472Z,100045.78
2022-12-16T05:44:43.774Z,100048.06
2022-12-16T05:47:29.202Z,100049.50
2022-12-16T05:50:14.555Z,100053.84
2022-12-16T05:53:10.366Z,100068.47
2022-12-16T05:55:55.700Z,100070.00
2022-12-16T05:58:41.204Z,100079.59
2022-12-16T06:01:27.110Z,100070.28
2022-12-16T06:04:17.221Z,100081.25
2022-12-16T06:07:02.967Z,100087.19
2022-12-16T06:09:53.113Z,100077.97
2022-12-16T06:12:41.897Z,100087.38
2022-12-16T06:15:27.526Z,100094.25
2022-12-16T06:18:12.479Z,100089.47
2022-12-16T06:20:58.268Z,100102.75
2022-12-16T06:23:43.164Z,100099.50
2022-12-16T06:26:28.317Z,100102.69
2022-12-16T06:29:13.695Z,100111.72
2022-12-16T06:31:58.864Z,100122.75
2022-12-16T06:34:44.114Z,100122.13
2022-12-16T06:37:29.073Z,100129.34
2022-12-16T06:40:14.000Z,100132.03
2022-12-16T06:42:59.661Z,100133.66
2022-12-16T06:45:45.493Z,100137.53
2022-12-16T06:48:31.321Z,100146.47
2022-12-16T06:51:16.633Z,100153.69
2022-12-16T06:54:01.885Z,100154.00
2022-12-16T06:56:47.100Z,100157.75
2022-12-16T06:59:32.668Z,100166.63
2022-12-16T07:02:18.235Z,100167.91
2022-12-16T07:05:03.755Z,100173.63
2022-12-16T07:08:05.726Z,100177.22
2022-12-16T07:10:50.878Z,100186.09
2022-12-16T07:13:36.138Z,100183.88
2022-12-16T07:16:21.516Z,100191.56
2022-12-16T07:19:06.973Z,100194.94
2022-12-16T07:21:52.399Z,100199.84
2022-12-16T07:24:40.076Z,100201.38
2022-12-16T07:27:25.042Z,100208.13
2022-12-16T07:30:10.488Z,100213.47
2022-12-16T07:32:56.038Z,100214.16
2022-12-16T07:35:41.191Z,100223.03
2022-12-16T07:38:26.106Z,100225.25
2022-12-16T07:41:11.156Z,100231.78
2022-12-16T07:43:56.456Z,100232.13
2022-12-16T07:46:41.625Z,100236.44
2022-12-16T07:49:26.672Z,100247.56
2022-12-16T07:52:11.543Z,100241.34
2022-12-16T07:54:56.974Z,100250.78
2022-12-16T07:57:42.197Z,100255.38
2022-12-16T08:00:28.028Z,100262.41
2022-12-16T08:03:13.953Z,100264.84
2022-12-16T08:05:59.256Z,100270.97
2022-12-16T08:08:44.429Z,100274.75
2022-12-16T08:11:29.559Z,100274.22
2022-12-16T08:14:14.439Z,100278.66
2022-12-16T08:16:59.770Z,100277.28
2022-12-16T08:19:44.688Z,100279.81
2022-12-16T08:22:29.873Z,100286.88
2022-12-16T08:25:15.217Z,100296.50
2022-12-16T08:28:00.648Z,100298.31
2022-12-16T08:30:45.951Z,100292.88
2022-12-16T08:33:31.546Z,100302.22
2022-12-16T08:36:17.499Z,100305.13
2022-12-16T08:39:02.917Z,100304.06
2022-12-16T08:41:48.269Z,100309.88
2022-12-16T08:44:33.374Z,100312.06
2022-12-16T08:47:18.461Z,100311.63
2022-12-16T08:50:03.328Z,100322.06
2022-12-16T08:52:49.125Z,100332.50
2022-12-16T08:55:34.418Z,100335.47
2022-12-16T08:58:19.743Z,100341.03
2022-12-16T09:01:07.771Z,100353.16
2022-12-16T09:03:55.276Z,100347.00
2022-12-16T09:06:41.225Z,100351.44
2022-12-16T09:09:27.805Z,100358.41
2022-12-16T09:12:13.120Z,100360.25
2022-12-16T09:14:58.296Z,100365.19
2022-12-16T09:17:43.860Z,100376.59
2022-12-16T09:20:28.991Z,100369.09
2022-12-16T09:23:14.369Z,100372.25
2022-12-16T09:25:59.709Z,100381.13
2022-12-16T09:28:45.183Z,100382.41
2022-12-16T09:31:30.458Z,100377.06
2022-12-16T09:34:16.339Z,100378.94
2022-12-16T09:37:02.475Z,100377.50
2022-12-16T09:39:54.209Z,100377.34
2022-12-16T09:42:49.422Z,100374.63
2022-12-16T09:45:37.960Z,100382.34
2022-12-16T09:48:34.088Z,100389.13
2022-12-16T09:51:24.530Z,100399.03
2022-12-16T09:54:15.130Z,100393.69
2022-12-16T09:57:03.550Z,100396.59
2022-12-16T09:59:58.570Z,100399.03
2022-12-16T10:02:44.729Z,100400.03
2022-12-16T10:05:40.808Z,100396.75
2022-12-16T10:08:55.569Z,100389.97
2022-12-16T10:11:49.281Z,100392.59
2022-12-16T10:14:46.293Z,100396.75
2022-12-16T10:17:40.678Z,100398.84
2022-12-16T10:20:44.535Z,100395.28
2022-12-16T10:23:41.966Z,100395.38
2022-12-16T10:26:42.168Z,100396.38
2022-12-16T10:29:43.769Z,100387.50
2022-12-16T10:32:43.370Z,100388.47
2022-12-16T10:35:36.774Z,100400.03
2022-12-16T10:38:28.223Z,100388.59
2022-12-16T10:41:13.923Z,100400.56
2022-12-16T10:44:05.178Z,100396.81
2022-12-16T10:46:54.292Z,100395.53
2022-12-16T10:49:41.489Z,100392.81
2022-12-16T10:52:33.420Z,100398.25
2022-12-16T10:55:35.705Z,100396.25
2022-12-16T10:58:39.165Z,100398.25
2022-12-16T11:01:41.195Z,100397.50
2022-12-16T11:04:46.137Z,100397.13
2022-12-16T11:07:51.569Z,100402.38
2022-12-16T11:11:01.257Z,100405.28
2022-12-16T11:13:49.401Z,100409.06
2022-12-16T11:16:38.586Z,100411.19
2022-12-16T11:19:39.213Z,100417.94
2022-12-16T11:22:31.517Z,100412.66
2022-12-16T11:25:46.313Z,100417.25
2022-12-16T11:28:35.881Z,100415.53
2022-12-16T11:31:33.283Z,100425.63
2022-12-16T11:34:20.892Z,100421.25
2022-12-16T11:37:28.347Z,100420.03
2022-12-16T11:40:13.817Z,100423.25
2022-12-16T11:43:03.017Z,100426.88
2022-12-16T11:45:54.083Z,100432.16
2022-12-16T11:48:55.907Z,100427.50
2022-12-16T11:51:45.647Z,100426.34
2022-12-16T11:54:36.961Z,100407.81
2022-12-16T11:57:26.122Z,100409.59
2022-12-16T12:00:17.517Z,100403.44
2022-12-16T12:03:11.022Z,100411.84
2022-12-16T12:06:00.743Z,100414.72
2022-12-16T12:08:55.874Z,100424.50
2022-12-16T12:11:54.250Z,100422.34
2022-12-16T12:15:07.408Z,100422.16
2022-12-16T12:17:58.983Z,100425.44
2022-12-16T12:20:59.280Z,100432.97
2022-12-16T12:23:54.987Z,100429.00
2022-12-16T12:26:51.922Z,100426.53
2022-12-16T12:29:38.204Z,100420.50
2022-12-16T12:32:42.896Z,100442.81
2022-12-16T12:35:40.623Z,100439.28
2022-12-16T12:38:48.608Z,100440.81
2022-12-16T12:41:47.430Z,100440.69
2022-12-16T12:45:02.612Z,100446.66
2022-12-16T12:47:49.823Z,100445.78
2022-12-16T12:50:47.306Z,100452.25
2022-12-16T12:54:00.284Z,100460.22
2022-12-16T12:57:09.029Z,100463.22
2022-12-16T13:00:23.204Z,100474.63
2022-12-16T13:03:34.300Z,100487.34
2022-12-16T13:06:20.580Z,100494.72
2022-12-16T13:09:08.825Z,100501.75
2022-12-16T13:12:18.252Z,100504.31
2022-12-16T13:15:06.256Z,100500.28
2022-12-16T13:18:20.457Z,100503.63
2022-12-16T13:21:13.548Z,100507.38
2022-12-16T13:24:03.949Z,100511.06
2022-12-16T13:26:52.743Z,100511.28
2022-12-16T13:29:47.710Z,100524.50
2022-12-16T13:32:45.492Z,100522.03
2022-12-16T13:35:32.003Z,100525.72
2022-12-16T13:38:37.773Z,100527.53
2022-12-16T13:41:25.851Z,100530.16
2022-12-16T13:44:11.225Z,100529.38
2022-12-16T13:47:08.134Z,100530.97
2022-12-16T13:49:56.445Z,100538.50
2022-12-16T13:53:16.247Z,100539.91
2022-12-16T13:56:13.165Z,100547.63
2022-12-16T13:59:02.592Z,100554.13
2022-12-16T14:02:06.848Z,100546.19
2022-12-16T14:05:08.438Z,100557.81
2022-12-16T14:07:57.784Z,100563.88
2022-12-16T14:10:53.366Z,100575.25
2022-12-16T14:14:04.748Z,100576.59
2022-12-16T14:17:11.136Z,100580.63
2022-12-16T14:20:18.231Z,100581.66
2022-12-16T14:23:55.992Z,100587.31
2022-12-16T14:26:36.803Z,100595.00
2022-12-16T14:29:32.536Z,100597.56
2022-12-16T14:32:19.182Z,100603.00
2022-12-16T14:35:04.213Z,100609.09
2022-12-16T14:37:54.937Z,100600.56
2022-12-16T14:40:58.408Z,100606.97
2022-12-16T14:43:44.597Z,100611.28
2022-12-16T14:46:50.730Z,100620.22
2022-12-16T14:49:45.107Z,100628.88
2022-12-16T14:52:38.486Z,100632.53
2022-12-16T14:55:35.273Z,100638.31
2022-12-16T14:58:28.991Z,100648.97
2022-12-16T15:01:18.494Z,100646.81
2022-12-16T15:04:12.124Z,100644.09
2022-12-16T15:07:02.091Z,100646.69
2022-12-16T15:09:57.171Z,100657.56
2022-12-16T15:12:46.464Z,100663.78
2022-12-16T15:15:44.237Z,100658.69
2022-12-16T15:18:37.081Z,100664.97
2022-12-16T15:21:22.764Z,100666.22
2022-12-16T15:24:08.095Z,100666.22
2022-12-16T15:26:53.749Z,100663.31
2022-12-16T15:29:51.126Z,100680.81
2022-12-16T15:32:54.415Z,100689.88
2022-12-16T15:35:42.774Z,100698.28
2022-12-16T15:38:33.850Z,100704.06
2022-12-16T15:41:24.613Z,100704.97
2022-12-16T15:44:10.938Z,100705.97
2022-12-16T15:46:56.637Z,100712.06
2022-12-16T15:49:51.503Z,100718.16
2022-12-16T15:52:49.060Z,100716.53
2022-12-16T15:55:50.347Z,100718.16
2022-12-16T15:58:44.326Z,100729.91
2022-12-16T16:01:32.553Z,100733.72
2022-12-16T16:04:17.853Z,100729.44
2022-12-16T16:07:09.992Z,100739.88
2022-12-16T16:09:57.165Z,100733.81
2022-12-16T16:12:43.819Z,100744.53
2022-12-16T16:15:32.930Z,100745.44
2022-12-16T16:18:38.535Z,100747.63
2022-12-16T16:21:23.788Z,100749.00
2022-12-16T16:24:08.642Z,100758.53
2022-12-16T16:26:53.830Z,100759.81
2022-12-16T16:29:38.961Z,100761.16
2022-12-16T16:32:24.578Z,100761.00
2022-12-16T16:35:09.795Z,100767.88
2022-12-16T16:37:55.179Z,100764.81
2022-12-16T16:40:53.667Z,100759.00
2022-12-16T16:43:38.817Z,100776.50
2022-12-16T16:46:39.484Z,100770.59
2022-12-16T16:49:30.784Z,100778.72
2022-12-16T16:52:16.197Z,100784.06
2022-12-16T16:55:01.461Z,100786.53
2022-12-16T16:57:51.739Z,100791.63
2022-12-16T17:00:36.969Z,100789.44
2022-12-16T17:03:22.687Z,100793.03
2022-12-16T17:06:07.959Z,100792.59
2022-12-16T17:08:53.186Z,100803.84
2022-12-16T17:11:40.948Z,100814.63
2022-12-16T17:14:32.581Z,100813.06
2022-12-16T17:17:18.225Z,100813.25
2022-12-16T17:20:04.013Z,100818.50
2022-12-16T17:22:49.863Z,100826.69
2022-12-16T17:25:35.443Z,100822.34
2022-12-16T17:28:21.648Z,100825.03
2022-12-16T17:31:06.832Z,100830.19
2022-12-16T17:33:52.070Z,100830.75
2022-12-16T17:36:37.705Z,100840.63
2022-12-16T17:39:24.025Z,100841.97
2022-12-16T17:42:09.621Z,100844.25
2022-12-16T17:44:54.491Z,100848.59
2022-12-16T17:47:41.397Z,100844.84
2022-12-16T17:50:27.339Z,100858.19
2022-12-16T17:53:14.438Z,100856.84
2022-12-16T17:56:00.186Z,100861.81
2022-12-16T17:58:52.786Z,100859.47
2022-12-16T18:01:38.719Z,100871.84
2022-12-16T18:04:24.709Z,100865.44
2022-12-16T18:07:10.375Z,100877.97
2022-12-16T18:09:55.565Z,100881.25
2022-12-16T18:12:41.603Z,100885.88
2022-12-16T18:15:27.431Z,100883.25
2022-12-16T18:18:12.697Z,100884.56
2022-12-16T18:20:58.043Z,100890.50
2022-12-16T18:23:43.225Z,100885.47
2022-12-16T18:26:29.551Z,100890.31
2022-12-16T18:29:15.328Z,100901.38
2022-12-16T18:32:00.563Z,100896.44
2022-12-16T18:34:45.939Z,100905.41
2022-12-16T18:37:31.707Z,100913.31
2022-12-16T18:40:17.556Z,100922.53
2022-12-16T18:43:03.028Z,100925.81
2022-12-16T18:45:51.304Z,100922.91
2022-12-16T18:48:36.394Z,100926.84
2022-12-16T18:51:22.239Z,100932.75
2022-12-16T18:54:09.199Z,100936.09
2022-12-16T18:56:54.604Z,100945.66
2022-12-16T18:59:39.790Z,100943.38
2022-12-16T19:02:25.512Z,100939.06
2022-12-16T19:05:11.238Z,100949.06
2022-12-16T19:07:56.540Z,100949.91
2022-12-16T19:10:41.891Z,100956.19
2022-12-16T19:13:32.398Z,100947.84
2022-12-16T19:16:17.673Z,100958.19
2022-12-16T19:19:03.040Z,100973.31
2022-12-16T19:24:55.027Z,100964.09
2022-12-16T19:27:42.023Z,100978.56
2022-12-16T19:30:28.582Z,100983.84
2022-12-16T19:33:13.978Z,100983.84
2022-12-16T19:35:59.571Z,100985.16
2022-12-16T19:38:44.772Z,100994.38
2022-12-16T19:41:34.509Z,100991.09
2022-12-16T19:44:20.274Z,101002.94
2022-12-16T19:47:05.736Z,101010.03
2022-12-16T19:49:54.780Z,101010.22
2022-12-16T19:52:42.091Z,101020.03
2022-12-16T19:55:27.413Z,101024.34
2022-12-16T19:58:12.826Z,101027.34
2022-12-16T20:01:01.398Z,101032.59
2022-12-16T20:03:47.727Z,101024.38
2022-12-16T20:06:33.607Z,101032.25
2022-12-16T20:09:19.687Z,101031.44
2022-12-16T20:12:09.952Z,101035.09
2022-12-16T20:14:56.560Z,101039.66
2022-12-16T20:17:44.167Z,101045.41
2022-12-16T20:20:29.845Z,101040.16
2022-12-16T20:23:15.208Z,101048.19
2022-12-16T20:26:00.919Z,101047.06
2022-12-16T20:28:46.369Z,101035.88
2022-12-16T20:31:31.785Z,101046.22
2022-12-16T20:34:23.278Z,101056.59
2022-12-16T20:37:08.691Z,101063.66
2022-12-16T20:39:56.409Z,101065.16
2022-12-16T20:43:00.601Z,101053.31
2022-12-16T20:45:48.299Z,101062.03
2022-12-16T20:48:34.911Z,101067.31
2022-12-16T20:51:26.530Z,101076.97
2022-12-16T20:54:14.267Z,101079.09
2022-12-16T20:56:59.877Z,101085.81
2022-12-16T20:59:44.931Z,101087.47
2022-12-16T21:05:37.128Z,101102.75
2022-12-16T21:08:22.531Z,101109.22
2022-12-16T21:11:08.025Z,101100.00
2022-12-16T21:13:56.358Z,101106.91
2022-12-16T21:16:41.955Z,101106.91
2022-12-16T21:19:33.093Z,101113.31
2022-12-16T21:22:18.795Z,101111.84
2022-12-16T21:25:04.044Z,101113.97
2022-12-16T21:27:49.292Z,101112.31
2022-12-16T21:30:34.476Z,101124.00
2022-12-16T21:33:19.799Z,101137.47
2022-12-16T21:36:14.276Z,101133.19
2022-12-16T21:39:00.127Z,101142.22
2022-12-16T21:41:45.686Z,101146.00
2022-12-16T21:44:30.938Z,101154.88
2022-12-16T21:47:16.091Z,101159.97
2022-12-16T21:50:01.698Z,101159.50
2022-12-16T21:52:46.965Z,101159.66
2022-12-16T21:55:35.513Z,101162.44
2022-12-16T21:58:31.928Z,101169.00
2022-12-16T22:01:18.315Z,101167.66
2022-12-16T22:04:09.677Z,101177.13
2022-12-16T22:06:55.154Z,101175.50
2022-12-16T22:09:42.356Z,101175.16
2022-12-16T22:12:28.013Z,101185.19
2022-12-16T22:15:13.368Z,101186.16
2022-12-16T22:17:59.086Z,101194.75
2022-12-16T22:20:45.603Z,101204.56
2022-12-16T22:23:31.056Z,101210.28
2022-12-16T22:26:18.605Z,101213.75
2022-12-16T22:29:07.221Z,101220.94
2022-12-16T22:31:58.373Z,101225.72
2022-12-16T22:34:43.708Z,101229.00
2022-12-16T22:37:31.439Z,101228.09
2022-12-16T22:40:17.264Z,101238.56
2022-12-16T22:43:02.646Z,101233.63
2022-12-16T22:45:47.848Z,101238.88
2022-12-16T22:48:35.856Z,101239.19
2022-12-16T22:51:21.433Z,101250.00
2022-12-16T22:54:07.731Z,101242.72
2022-12-16T22:56:56.332Z,101238.28
2022-12-16T22:59:42.407Z,101252.00
2022-12-16T23:02:28.342Z,101255.59
2022-12-16T23:05:14.490Z,101262.75
2022-12-16T23:08:01.616Z,101262.09
2022-12-16T23:10:59.172Z,101273.13
2022-12-16T23:13:45.618Z,101269.09
2022-12-16T23:16:31.029Z,101270.22
2022-12-16T23:19:16.283Z,101269.72
2022-12-16T23:22:02.030Z,101268.16
2022-12-16T23:25:07.021Z,101275.84
2022-12-16T23:27:52.238Z,101275.78
2022-12-16T23:30:37.967Z,101283.66
2022-12-16T23:33:23.037Z,101284.66
2022-12-16T23:36:08.360Z,101277.72
2022-12-16T23:38:53.802Z,101288.22
2022-12-16T23:41:41.552Z,101287.94
2022-12-16T23:44:26.663Z,101291.53
2022-12-16T23:47:11.926Z,101298.75
2022-12-16T23:49:57.191Z,101296.78
2022-12-16T23:52:42.416Z,101305.34
2022-12-16T23:55:28.534Z,101304.38
2022-12-16T23:58:21.251Z,101295.38
